Iberville, Canada
Current Conditions -  °F | °C
As of 5:00 AM on Sunday 26 Oct 2014 (Local Time) from CYHU Reporting Station
Overcast Overcast  
Wind Chill: 43°   Ceiling: 11000
Heat Index: 48°   Visibility: 9mi
Dew Point: 43°   Wind: 12mph
Humidity: 82%   Direction: 250°WSW
Pressure: 29.4"   Gusts: NA
Location:  45.32°N, 73.23°W
Report Text: CYHU 260900Z AUTO 25010KT 9SM SCT065 SCT080 OVC110 09/06 A2940 RMK SLP956
Loading
Personal Weather Stations






























Interactive Weather Map New forecast layout! Learn more

10-Day Weather Forecast

Advertisements
Track Severe Weather on mobile